Time;durP1;ratioP1;P1;durP2;ratioP2;P2;SDS_P1;SDS_P2;PMS_P1;PMS_P2;Temp;Humidity;BMP_temperature;BMP_pressure;BME280_temperature;BME280_humidity;BME280_pressure;Samples;Min_cycle;Max_cycle;Signal;HPM_P1;HPM_P2
2022/03/16 00:00:33;;;;;;;;;;;;;;;5.33;100.00;102417.91;5071983;28;19920;-79
2022/03/16 00:03:00;;;;;;;;;;;;;;;5.36;100.00;102415.53;5077097;28;19916;-77
2022/03/16 00:05:26;;;;;;;;;;;;;;;5.45;100.00;102417.06;5055782;28;19920;-77
2022/03/16 00:07:52;;;;;;;;;;;;;;;5.43;100.00;102411.72;5072958;28;19956;-77
2022/03/16 00:10:17;;;;;;;;;;;;;;;5.35;100.00;102405.88;5055042;28;19963;-78
2022/03/16 00:12:43;;;;;;;;;;;;;;;5.45;100.00;102406.63;5073199;28;19916;-78
2022/03/16 00:15:14;;;;;;;;;;;;;;;5.38;100.00;102400.91;5054862;28;19924;-78
2022/03/16 00:17:40;;;;;;;;;;;;;;;5.32;100.00;102399.50;5055134;28;19916;-77
2022/03/16 00:20:05;;;;;;;;;;;;;;;5.23;100.00;102404.84;5069483;28;19977;-78
2022/03/16 00:22:30;;;;;;;;;;;;;;;5.20;100.00;102409.81;5075231;28;19951;-78
2022/03/16 00:24:56;;;;;;;;;;;;;;;5.14;100.00;102415.47;5075201;28;20355;-77
2022/03/16 00:27:21;;;;;;;;;;;;;;;5.12;100.00;102422.25;5076476;28;19942;-78
2022/03/16 00:29:46;;;;;;;;;;;;;;;5.04;100.00;102413.78;5079221;28;19917;-80
2022/03/16 00:32:12;;;;;;;;;;;;;;;5.03;100.00;102417.19;5064310;28;19924;-80
2022/03/16 00:34:39;;;;;;;;;;;;;;;4.96;100.00;102425.28;5078712;28;19924;-79
2022/03/16 00:37:04;;;;;;;;;;;;;;;4.91;100.00;102424.00;5078771;28;19916;-79
2022/03/16 00:39:31;;;;;;;;;;;;;;;4.85;100.00;102420.88;5078974;28;19920;-79
2022/03/16 00:41:56;;;;;;;;;;;;;;;4.82;100.00;102416.28;5071116;28;20330;-79
2022/03/16 00:44:22;;;;;;;;;;;;;;;4.81;100.00;102417.06;5069493;28;19919;-80
2022/03/16 00:46:47;;;;;;;;;;;;;;;4.77;100.00;102416.69;5078267;28;20011;-79
2022/03/16 00:49:12;;;;;;;;;;;;;;;4.73;100.00;102418.13;5096890;28;19916;-79
2022/03/16 00:51:38;;;;;;;;;;;;;;;4.71;100.00;102421.38;5096751;28;19923;-79
2022/03/16 00:54:09;;;;;;;;;;;;;;;4.65;100.00;102421.78;5096629;28;19916;-79
2022/03/16 00:56:34;;;;;;;;;;;;;;;4.63;100.00;102412.91;5073748;28;19966;-79
2022/03/16 00:59:00;;;;;;;;;;;;;;;4.56;100.00;102413.19;5057947;28;19952;-78
2022/03/16 01:01:25;;;;;;;;;;;;;;;4.48;100.00;102412.53;5076351;28;19947;-77
2022/03/16 01:03:52;;;;;;;;;;;;;;;4.43;100.00;102425.16;5058485;28;20345;-78
2022/03/16 01:06:17;;;;;;;;;;;;;;;4.51;100.00;102411.88;5063915;28;19921;-78
2022/03/16 01:08:43;;;;;;;;;;;;;;;4.50;100.00;102408.34;5059960;28;20003;-76
2022/03/16 01:11:08;;;;;;;;;;;;;;;4.45;100.00;102409.66;5095232;28;19955;-78
2022/03/16 01:13:36;;;;;;;;;;;;;;;4.38;100.00;102407.28;5096574;28;19927;-78
2022/03/16 01:16:01;;;;;;;;;;;;;;;4.35;100.00;102400.13;5084558;28;19919;-78
2022/03/16 01:18:26;;;;;;;;;;;;;;;4.28;100.00;102403.88;5076128;28;19917;-78
2022/03/16 01:20:51;;;;;;;;;;;;;;;4.27;100.00;102398.53;5085824;28;20367;-78
2022/03/16 01:23:17;;;;;;;;;;;;;;;4.25;100.00;102392.28;5061491;28;19966;-77
2022/03/16 01:25:43;;;;;;;;;;;;;;;4.26;100.00;102395.03;5061260;28;19921;-78
2022/03/16 01:28:10;;;;;;;;;;;;;;;4.20;100.00;102389.28;5077320;28;19916;-79
2022/03/16 01:30:55;;;;;;;;;;;;;;;4.20;100.00;102399.72;5077986;28;19952;-77
2022/03/16 01:33:22;;;;;;;;;;;;;;;4.14;100.00;102393.97;5074196;28;19928;-78
2022/03/16 01:35:52;;;;;;;;;;;;;;;4.10;100.00;102397.06;5067836;28;19924;-79
2022/03/16 01:38:21;;;;;;;;;;;;;;;4.09;100.00;102400.50;5093376;28;19955;-78
2022/03/16 01:40:46;;;;;;;;;;;;;;;4.08;100.00;102409.97;5061406;28;19927;-77
2022/03/16 01:43:13;;;;;;;;;;;;;;;4.08;100.00;102399.56;5077996;28;19958;-79
2022/03/16 01:45:44;;;;;;;;;;;;;;;4.03;100.00;102400.84;5077930;28;19924;-79
2022/03/16 01:48:09;;;;;;;;;;;;;;;3.99;100.00;102405.66;5067132;28;19920;-78
2022/03/16 01:50:35;;;;;;;;;;;;;;;4.00;100.00;102399.69;5057459;28;19966;-79
2022/03/16 01:53:01;;;;;;;;;;;;;;;4.02;100.00;102399.00;5057488;28;19916;-80
2022/03/16 01:55:26;;;;;;;;;;;;;;;4.07;100.00;102396.81;5078999;28;19927;-79
2022/03/16 01:57:52;;;;;;;;;;;;;;;4.09;100.00;102395.28;5077935;28;19916;-78
2022/03/16 02:00:17;;;;;;;;;;;;;;;4.08;100.00;102388.22;5077769;28;20413;-79
2022/03/16 02:02:42;;;;;;;;;;;;;;;4.06;100.00;102398.50;5077614;28;19916;-78
2022/03/16 02:05:08;;;;;;;;;;;;;;;4.05;100.00;102395.78;5077501;28;19967;-78
2022/03/16 02:07:34;;;;;;;;;;;;;;;4.06;100.00;102401.13;5077485;28;19920;-78
2022/03/16 02:10:00;;;;;;;;;;;;;;;4.09;100.00;102401.38;5060239;28;20032;-78
2022/03/16 02:12:26;;;;;;;;;;;;;;;4.06;100.00;102401.13;5077182;28;20353;-78
2022/03/16 02:14:51;;;;;;;;;;;;;;;4.11;100.00;102398.91;5077641;28;19924;-77
2022/03/16 02:17:16;;;;;;;;;;;;;;;4.10;100.00;102389.25;5071812;28;19923;-79
2022/03/16 02:19:42;;;;;;;;;;;;;;;4.09;100.00;102383.13;5057374;28;19920;-79
2022/03/16 02:22:09;;;;;;;;;;;;;;;4.09;100.00;102379.63;5072612;28;19965;-79
2022/03/16 02:24:36;;;;;;;;;;;;;;;4.09;100.00;102377.94;5056905;28;20572;-78
2022/03/16 02:27:01;;;;;;;;;;;;;;;4.10;100.00;102376.22;5074614;28;19928;-79
2022/03/16 02:29:26;;;;;;;;;;;;;;;4.04;100.00;102373.09;5069039;28;19916;-77
2022/03/16 02:31:52;;;;;;;;;;;;;;;4.04;100.00;102375.69;5094718;28;19923;-79
2022/03/16 02:34:18;;;;;;;;;;;;;;;4.02;100.00;102377.25;5061900;28;19965;-79
2022/03/16 02:36:43;;;;;;;;;;;;;;;4.03;100.00;102377.41;5058436;28;19917;-78
2022/03/16 02:39:09;;;;;;;;;;;;;;;4.07;100.00;102375.97;5076075;28;19935;-78
2022/03/16 02:41:34;;;;;;;;;;;;;;;4.09;100.00;102374.41;5094976;28;19951;-78
2022/03/16 02:44:03;;;;;;;;;;;;;;;4.06;100.00;102384.59;5094392;28;19923;-81
2022/03/16 02:46:28;;;;;;;;;;;;;;;3.99;100.00;102393.53;5061766;28;19920;-80
2022/03/16 02:48:53;;;;;;;;;;;;;;;3.95;100.00;102392.38;5054086;28;20527;-79
2022/03/16 02:51:18;;;;;;;;;;;;;;;3.91;100.00;102390.25;5050971;28;19921;-80
2022/03/16 02:53:52;;;;;;;;;;;;;;;3.86;100.00;102394.16;5074184;28;19962;-79
2022/03/16 02:56:19;;;;;;;;;;;;;;;3.83;100.00;102390.38;5048294;28;19970;-78
2022/03/16 02:58:46;;;;;;;;;;;;;;;3.83;100.00;102393.00;5062145;28;19924;-80
2022/03/16 03:01:14;;;;;;;;;;;;;;;3.85;100.00;102392.31;5056492;28;20585;-80
2022/03/16 03:04:01;;;;;;;;;;;;;;;3.88;100.00;102389.09;5052005;28;19916;-80
2022/03/16 03:06:27;;;;;;;;;;;;;;;3.85;100.00;102384.50;5076210;28;19916;-80
2022/03/16 03:08:52;;;;;;;;;;;;;;;3.80;100.00;102388.41;5046167;28;19917;-80
2022/03/16 03:11:18;;;;;;;;;;;;;;;3.79;100.00;102389.19;5056237;28;19924;-80
2022/03/16 03:13:47;;;;;;;;;;;;;;;3.76;100.00;102381.13;5056395;28;19923;-80
2022/03/16 03:16:12;;;;;;;;;;;;;;;3.78;100.00;102377.84;5090155;28;19916;-80
2022/03/16 03:18:37;;;;;;;;;;;;;;;3.74;100.00;102380.06;5076329;28;20003;-79
2022/03/16 03:21:03;;;;;;;;;;;;;;;3.71;100.00;102374.56;5075819;28;19927;-79
2022/03/16 03:23:36;;;;;;;;;;;;;;;3.69;100.00;102369.22;5070360;28;19928;-80
2022/03/16 03:26:01;;;;;;;;;;;;;;;3.65;100.00;102368.81;5055814;28;19920;-80
2022/03/16 03:28:27;;;;;;;;;;;;;;;3.65;100.00;102369.75;5068281;28;19927;-80
2022/03/16 03:30:52;;;;;;;;;;;;;;;3.65;100.00;102363.63;5074044;28;19916;-80
2022/03/16 03:33:17;;;;;;;;;;;;;;;3.62;100.00;102374.69;5055967;28;20368;-80
2022/03/16 03:35:43;;;;;;;;;;;;;;;3.64;100.00;102372.22;5065163;28;20014;-80
2022/03/16 03:38:08;;;;;;;;;;;;;;;3.66;100.00;102370.66;5071503;28;19931;-80
2022/03/16 03:40:36;;;;;;;;;;;;;;;3.65;100.00;102376.63;5055702;28;19921;-80
2022/03/16 03:43:03;;;;;;;;;;;;;;;3.64;100.00;102386.16;5055692;28;20011;-79
2022/03/16 03:45:28;;;;;;;;;;;;;;;3.69;100.00;102391.78;5073481;28;19917;-80
2022/03/16 03:47:54;;;;;;;;;;;;;;;3.70;100.00;102394.53;5060004;28;19974;-79
2022/03/16 03:50:19;;;;;;;;;;;;;;;3.67;100.00;102403.75;5075864;28;19924;-79
2022/03/16 03:52:45;;;;;;;;;;;;;;;3.62;100.00;102394.59;5075908;28;19959;-79
2022/03/16 03:55:14;;;;;;;;;;;;;;;3.62;100.00;102399.81;5075069;28;20265;-79
2022/03/16 03:57:39;;;;;;;;;;;;;;;3.66;100.00;102400.22;5075714;28;19952;-79
2022/03/16 04:00:05;;;;;;;;;;;;;;;3.66;100.00;102401.94;5075225;28;19970;-79
2022/03/16 04:02:31;;;;;;;;;;;;;;;3.57;100.00;102400.34;5077946;28;19916;-80
2022/03/16 04:05:02;;;;;;;;;;;;;;;3.56;100.00;102406.31;5074406;28;19921;-80
2022/03/16 04:07:27;;;;;;;;;;;;;;;3.54;100.00;102401.75;5076915;28;19927;-79
2022/03/16 04:09:53;;;;;;;;;;;;;;;3.45;100.00;102395.72;5077138;28;19916;-79
2022/03/16 04:12:18;;;;;;;;;;;;;;;3.46;100.00;102401.06;5059444;28;19916;-78
2022/03/16 04:14:47;;;;;;;;;;;;;;;3.42;100.00;102385.94;5076988;28;20115;-79
2022/03/16 04:17:12;;;;;;;;;;;;;;;3.40;100.00;102387.47;5059206;28;20376;-78
2022/03/16 04:19:37;;;;;;;;;;;;;;;3.36;100.00;102393.22;5059306;28;19916;-78
2022/03/16 04:22:02;;;;;;;;;;;;;;;3.31;100.00;102403.22;5077078;28;19924;-76
2022/03/16 04:24:35;;;;;;;;;;;;;;;3.32;100.00;102405.03;5059463;28;20268;-77
2022/03/16 04:27:00;;;;;;;;;;;;;;;3.33;100.00;102401.66;5059133;28;19943;-78
2022/03/16 04:29:25;;;;;;;;;;;;;;;3.35;100.00;102396.59;5059213;28;19916;-77
2022/03/16 04:31:52;;;;;;;;;;;;;;;3.35;100.00;102392.28;5059296;28;20367;-78
2022/03/16 04:34:39;;;;;;;;;;;;;;;3.43;100.00;102398.16;5059237;28;19983;-78
2022/03/16 04:37:06;;;;;;;;;;;;;;;3.50;100.00;102402.25;5073829;28;19977;-79
2022/03/16 04:39:32;;;;;;;;;;;;;;;3.47;100.00;102404.59;5077168;28;20363;-79
2022/03/16 04:42:02;;;;;;;;;;;;;;;3.47;100.00;102400.28;5059439;28;19924;-80
2022/03/16 04:44:28;;;;;;;;;;;;;;;3.49;100.00;102406.53;5057862;28;19959;-80
2022/03/16 04:46:54;;;;;;;;;;;;;;;3.47;100.00;102397.69;5058491;28;20286;-80
2022/03/16 04:49:19;;;;;;;;;;;;;;;3.45;100.00;102391.44;5058817;28;19920;-81
2022/03/16 04:51:44;;;;;;;;;;;;;;;3.48;100.00;102391.72;5058801;28;19948;-80
2022/03/16 04:54:11;;;;;;;;;;;;;;;3.49;100.00;102398.72;5076542;28;19970;-79
2022/03/16 04:56:37;;;;;;;;;;;;;;;3.54;100.00;102388.72;5059256;28;19928;-80
2022/03/16 04:59:03;;;;;;;;;;;;;;;3.48;100.00;102385.56;5058960;28;19917;-80
2022/03/16 05:01:29;;;;;;;;;;;;;;;3.50;100.00;102389.25;5058741;28;20371;-79
2022/03/16 05:03:54;;;;;;;;;;;;;;;3.49;100.00;102388.31;5058629;28;19923;-79
2022/03/16 05:06:20;;;;;;;;;;;;;;;3.48;100.00;102390.78;5058755;28;19916;-80
2022/03/16 05:08:47;;;;;;;;;;;;;;;3.47;100.00;102379.44;5058917;28;19913;-78
2022/03/16 05:11:13;;;;;;;;;;;;;;;3.48;100.00;102391.72;5041946;28;19921;-79
2022/03/16 05:13:45;;;;;;;;;;;;;;;3.45;100.00;102390.50;5090849;28;20054;-78
2022/03/16 05:16:10;;;;;;;;;;;;;;;3.46;100.00;102392.34;5058313;28;19920;-81
2022/03/16 05:18:35;;;;;;;;;;;;;;;3.46;100.00;102398.44;5077746;28;19939;-79
2022/03/16 05:21:03;;;;;;;;;;;;;;;3.44;100.00;102388.69;5060404;28;20032;-80
2022/03/16 05:23:29;;;;;;;;;;;;;;;3.44;100.00;102393.91;5060946;28;19924;-81
2022/03/16 05:25:55;;;;;;;;;;;;;;;3.44;100.00;102399.09;5059492;28;19917;-79
2022/03/16 05:28:20;;;;;;;;;;;;;;;3.42;100.00;102397.28;5060096;28;19928;-80
2022/03/16 05:30:45;;;;;;;;;;;;;;;3.40;100.00;102401.44;5059439;28;19916;-79
2022/03/16 05:33:12;;;;;;;;;;;;;;;3.40;100.00;102401.44;5071517;28;19975;-79
2022/03/16 05:35:38;;;;;;;;;;;;;;;3.35;100.00;102397.47;5059481;28;20011;-81
2022/03/16 05:38:05;;;;;;;;;;;;;;;3.32;100.00;102398.91;5067968;28;20290;-80
2022/03/16 05:40:30;;;;;;;;;;;;;;;3.33;100.00;102405.94;5079321;28;19958;-80
2022/03/16 05:42:56;;;;;;;;;;;;;;;3.31;100.00;102398.00;5081831;28;19924;-81
2022/03/16 05:45:21;;;;;;;;;;;;;;;3.35;100.00;102399.19;5080806;28;19927;-81
2022/03/16 05:47:46;;;;;;;;;;;;;;;3.34;100.00;102402.56;5075070;28;20371;-80
2022/03/16 05:50:12;;;;;;;;;;;;;;;3.31;100.00;102413.63;5056796;28;20001;-80
2022/03/16 05:52:37;;;;;;;;;;;;;;;3.35;100.00;102407.00;5058573;28;19912;-80
2022/03/16 05:55:03;;;;;;;;;;;;;;;3.37;100.00;102405.44;5056671;28;19930;-80
2022/03/16 05:57:28;;;;;;;;;;;;;;;3.40;100.00;102409.25;5073851;28;19952;-79
2022/03/16 05:59:53;;;;;;;;;;;;;;;3.39;100.00;102412.63;5075185;28;19921;-79
2022/03/16 06:02:18;;;;;;;;;;;;;;;3.39;100.00;102420.44;5057538;28;20368;-78
2022/03/16 06:04:44;;;;;;;;;;;;;;;3.41;100.00;102428.38;5056762;28;19916;-78
2022/03/16 06:07:10;;;;;;;;;;;;;;;3.41;100.00;102446.63;5057103;28;19923;-78
2022/03/16 06:09:35;;;;;;;;;;;;;;;3.43;100.00;102434.63;5075340;28;20007;-79
2022/03/16 06:12:02;;;;;;;;;;;;;;;3.44;100.00;102427.75;5057125;28;19916;-80
2022/03/16 06:14:32;;;;;;;;;;;;;;;3.45;100.00;102433.09;5073891;28;19970;-79
2022/03/16 06:17:05;;;;;;;;;;;;;;;3.47;100.00;102435.84;5075212;28;19998;-78
2022/03/16 06:19:31;;;;;;;;;;;;;;;3.52;100.00;102435.47;5056900;28;19983;-80
2022/03/16 06:21:57;;;;;;;;;;;;;;;3.53;100.00;102429.50;5056644;28;19924;-80
2022/03/16 06:24:24;;;;;;;;;;;;;;;3.65;100.00;102436.56;5056366;28;19925;-79
2022/03/16 06:26:49;;;;;;;;;;;;;;;3.86;100.00;102440.19;5074826;28;19916;-80
2022/03/16 06:29:20;;;;;;;;;;;;;;;4.07;100.00;102469.81;5056720;28;19924;-80
2022/03/16 06:31:47;;;;;;;;;;;;;;;4.18;100.00;102470.75;5058234;28;19920;-80
2022/03/16 06:34:18;;;;;;;;;;;;;;;4.29;100.00;102476.13;5039628;28;19924;-78
2022/03/16 06:36:46;;;;;;;;;;;;;;;4.39;100.00;102477.84;5056929;28;20363;-80
2022/03/16 06:39:11;;;;;;;;;;;;;;;4.42;100.00;102478.09;5040195;28;19920;-79
2022/03/16 06:41:36;;;;;;;;;;;;;;;4.45;100.00;102473.16;5057088;28;19920;-80
2022/03/16 06:44:13;;;;;;;;;;;;;;;4.43;100.00;102458.19;5039880;28;19920;-81
2022/03/16 06:46:41;;;;;;;;;;;;;;;4.71;100.00;102455.31;5063508;28;19985;-80
2022/03/16 06:49:07;;;;;;;;;;;;;;;4.88;100.00;102460.28;5075587;28;19920;-80
2022/03/16 06:51:32;;;;;;;;;;;;;;;4.91;100.00;102457.00;5076414;28;19916;-79
2022/03/16 06:54:03;;;;;;;;;;;;;;;4.97;100.00;102442.78;5076034;28;20007;-79
2022/03/16 06:56:44;;;;;;;;;;;;;;;5.01;100.00;102454.41;5094953;28;20378;-79
2022/03/16 06:59:09;;;;;;;;;;;;;;;5.17;100.00;102441.84;5059854;28;19920;-79
2022/03/16 07:01:47;;;;;;;;;;;;;;;5.18;100.00;102434.91;5065111;28;19977;-80
2022/03/16 07:04:13;;;;;;;;;;;;;;;5.08;100.00;102429.69;5054913;28;20115;-79
2022/03/16 07:06:38;;;;;;;;;;;;;;;5.14;100.00;102425.91;5056126;28;19916;-79
2022/03/16 07:09:07;;;;;;;;;;;;;;;5.26;100.00;102420.78;5073454;28;19916;-79
2022/03/16 07:11:35;;;;;;;;;;;;;;;5.08;100.00;102411.41;5077696;28;19920;-78
2022/03/16 07:16:46;;;;;;;;;;;;;;;5.15;100.00;102395.50;5073335;28;20386;-78
2022/03/16 07:19:13;;;;;;;;;;;;;;;5.15;100.00;102396.38;5038382;28;19924;-80
2022/03/16 07:21:39;;;;;;;;;;;;;;;5.32;100.00;102389.94;5055173;28;19924;-81
2022/03/16 07:24:05;;;;;;;;;;;;;;;5.44;100.00;102396.94;5074816;28;19916;-80
2022/03/16 07:26:31;;;;;;;;;;;;;;;5.62;100.00;102390.59;5056407;28;20427;-78
2022/03/16 07:28:56;;;;;;;;;;;;;;;5.64;100.00;102382.88;5056021;28;19916;-80
2022/03/16 07:31:22;;;;;;;;;;;;;;;5.75;100.00;102362.06;5054349;28;19927;-74
2022/03/16 07:33:48;;;;;;;;;;;;;;;6.00;100.00;102353.56;5071174;28;19917;-79
2022/03/16 07:36:13;;;;;;;;;;;;;;;6.02;100.00;102349.38;5068750;28;19916;-79
2022/03/16 07:38:38;;;;;;;;;;;;;;;5.97;100.00;102353.34;5055036;28;19924;-77
2022/03/16 07:41:05;;;;;;;;;;;;;;;6.07;100.00;102348.00;5038154;28;19960;-79
2022/03/16 07:43:30;;;;;;;;;;;;;;;6.11;100.00;102344.84;5055019;28;19920;-79
2022/03/16 07:45:56;;;;;;;;;;;;;;;6.09;100.00;102340.28;5037611;28;19977;-80
2022/03/16 07:48:22;;;;;;;;;;;;;;;6.15;100.00;102334.63;5054654;28;19924;-79
2022/03/16 07:50:47;;;;;;;;;;;;;;;6.17;100.00;102327.81;5053225;28;20350;-80
2022/03/16 07:53:18;;;;;;;;;;;;;;;6.25;100.00;102325.00;5037701;28;20212;-80
2022/03/16 07:55:45;;;;;;;;;;;;;;;6.18;100.00;102320.06;5054625;28;19920;-80
2022/03/16 07:58:11;;;;;;;;;;;;;;;6.36;100.00;102327.53;5072722;28;19948;-80
2022/03/16 08:00:36;;;;;;;;;;;;;;;6.51;100.00;102330.41;5053704;28;19927;-78
2022/03/16 08:03:03;;;;;;;;;;;;;;;6.62;100.00;102337.38;5053639;28;20007;-81
2022/03/16 08:05:28;;;;;;;;;;;;;;;6.93;100.00;102337.03;5054675;28;19926;-81
2022/03/16 08:07:54;;;;;;;;;;;;;;;7.15;100.00;102345.72;5037262;28;20350;-78
2022/03/16 08:10:21;;;;;;;;;;;;;;;7.15;100.00;102357.91;5054858;28;20383;-81
2022/03/16 08:12:48;;;;;;;;;;;;;;;7.26;100.00;102340.34;5053798;28;19916;-81
2022/03/16 08:15:13;;;;;;;;;;;;;;;7.42;100.00;102339.75;5053201;28;19920;-81
2022/03/16 08:17:39;;;;;;;;;;;;;;;7.27;100.00;102337.84;5054484;28;19940;-81
2022/03/16 08:20:05;;;;;;;;;;;;;;;7.50;100.00;102336.91;5053881;28;19916;-79
2022/03/16 08:22:32;;;;;;;;;;;;;;;7.69;100.00;102333.88;5054417;28;19944;-78
2022/03/16 08:24:59;;;;;;;;;;;;;;;7.87;100.00;102335.97;5054049;28;20347;-79
2022/03/16 08:27:24;;;;;;;;;;;;;;;7.97;100.00;102333.22;5054612;28;19920;-79
2022/03/16 08:29:51;;;;;;;;;;;;;;;8.35;100.00;102318.31;5053952;28;20045;-81
2022/03/16 08:32:17;;;;;;;;;;;;;;;8.68;100.00;102311.81;5054351;28;19913;-79
2022/03/16 08:34:43;;;;;;;;;;;;;;;8.60;100.00;102297.28;5054414;28;19917;-80
2022/03/16 08:37:09;;;;;;;;;;;;;;;8.29;100.00;102292.53;5072074;28;20512;-78
2022/03/16 08:39:35;;;;;;;;;;;;;;;8.35;100.00;102277.22;5054047;28;19936;-77
2022/03/16 08:42:02;;;;;;;;;;;;;;;8.51;100.00;102273.94;5048693;28;19917;-79
2022/03/16 08:44:27;;;;;;;;;;;;;;;8.84;100.00;102271.75;5053233;28;20011;-80
2022/03/16 08:46:52;;;;;;;;;;;;;;;8.79;100.00;102260.00;5071350;28;20343;-78
2022/03/16 08:49:18;;;;;;;;;;;;;;;8.88;100.00;102255.34;5070083;28;19924;-80
2022/03/16 08:51:43;;;;;;;;;;;;;;;8.82;100.00;102254.94;5056719;28;19920;-81
2022/03/16 08:54:11;;;;;;;;;;;;;;;8.80;100.00;102264.47;5064031;28;19973;-81
2022/03/16 08:56:37;;;;;;;;;;;;;;;8.88;100.00;102254.47;5055297;28;19974;-82
2022/03/16 08:59:02;;;;;;;;;;;;;;;8.88;100.00;102249.19;5057928;28;19929;-80
2022/03/16 09:01:27;;;;;;;;;;;;;;;8.88;100.00;102239.59;5044138;28;20375;-81
2022/03/16 09:04:01;;;;;;;;;;;;;;;8.86;100.00;102246.47;5057806;28;19924;-78
2022/03/16 09:06:28;;;;;;;;;;;;;;;9.03;100.00;102244.03;5058005;28;19924;-81
2022/03/16 09:08:54;;;;;;;;;;;;;;;8.95;100.00;102235.66;5075330;28;19916;-78
2022/03/16 09:11:21;;;;;;;;;;;;;;;9.14;100.00;102238.66;5058005;28;20247;-80
2022/03/16 09:13:47;;;;;;;;;;;;;;;9.00;100.00;102246.47;5074993;28;19931;-81
2022/03/16 09:16:13;;;;;;;;;;;;;;;9.03;100.00;102249.31;5057221;28;19957;-80
2022/03/16 09:18:38;;;;;;;;;;;;;;;9.04;100.00;102238.84;5062973;28;20002;-80
2022/03/16 09:21:04;;;;;;;;;;;;;;;9.14;100.00;102235.13;5041153;28;20081;-80
2022/03/16 09:23:31;;;;;;;;;;;;;;;9.21;100.00;102239.94;5057691;28;20402;-82
2022/03/16 09:26:00;;;;;;;;;;;;;;;9.21;100.00;102241.66;5076011;28;20275;-82
2022/03/16 09:28:26;;;;;;;;;;;;;;;9.23;100.00;102230.47;5057833;28;19921;-82
2022/03/16 09:30:52;;;;;;;;;;;;;;;9.22;100.00;102227.72;5057629;28;19920;-80
2022/03/16 09:33:19;;;;;;;;;;;;;;;9.26;100.00;102228.03;5075184;28;20384;-79
2022/03/16 09:35:45;;;;;;;;;;;;;;;9.24;100.00;102228.72;5075895;28;19916;-80
2022/03/16 09:38:12;;;;;;;;;;;;;;;9.41;100.00;102219.28;5075009;28;20357;-80
2022/03/16 09:40:37;;;;;;;;;;;;;;;9.48;100.00;102221.50;5057405;28;19958;-80
2022/03/16 09:43:08;;;;;;;;;;;;;;;9.44;100.00;102222.09;5055477;28;19917;-79
2022/03/16 09:45:39;;;;;;;;;;;;;;;9.50;100.00;102215.50;5057003;28;20011;-79
2022/03/16 09:48:07;;;;;;;;;;;;;;;9.66;100.00;102213.81;5056485;28;20051;-81
2022/03/16 09:50:34;;;;;;;;;;;;;;;9.76;100.00;102207.41;5057130;28;20352;-81
2022/03/16 09:52:59;;;;;;;;;;;;;;;9.74;100.00;102216.91;5074017;28;19916;-80
2022/03/16 09:55:25;;;;;;;;;;;;;;;9.81;100.00;102200.69;5057040;28;19921;-80
2022/03/16 09:57:52;;;;;;;;;;;;;;;9.96;100.00;102204.25;5040313;28;20022;-81
2022/03/16 10:00:19;;;;;;;;;;;;;;;10.10;100.00;102201.53;5055848;28;19986;-79
2022/03/16 10:02:44;;;;;;;;;;;;;;;10.07;100.00;102211.06;5056763;28;20001;-81
2022/03/16 10:05:10;;;;;;;;;;;;;;;9.96;100.00;102211.22;5074129;28;19924;-80
2022/03/16 10:07:36;;;;;;;;;;;;;;;10.00;100.00;102208.88;5056084;28;19916;-80
2022/03/16 10:15:32;;;;;;;;;;;;;;;10.18;100.00;102201.16;5073361;28;19932;-79
2022/03/16 10:18:00;;;;;;;;;;;;;;;10.15;100.00;102190.47;5039455;28;20319;-78
2022/03/16 10:20:32;;;;;;;;;;;;;;;10.27;100.00;102181.47;5056112;28;20321;-77
2022/03/16 10:22:59;;;;;;;;;;;;;;;10.36;100.00;102190.84;5073474;28;19916;-82
2022/03/16 10:25:26;;;;;;;;;;;;;;;10.13;100.00;102185.91;5074006;28;20012;-78
2022/03/16 10:27:51;;;;;;;;;;;;;;;10.34;100.00;102187.22;5055709;28;19916;-80
2022/03/16 10:30:16;;;;;;;;;;;;;;;10.27;100.00;102190.28;5019046;28;19967;-79
2022/03/16 10:32:54;;;;;;;;;;;;;;;10.47;100.00;102178.31;5052761;28;20019;-79
2022/03/16 10:35:23;;;;;;;;;;;;;;;10.61;100.00;102176.44;5053735;28;19925;-78
2022/03/16 10:37:50;;;;;;;;;;;;;;;10.82;100.00;102173.22;5072119;28;20138;-79
2022/03/16 10:40:19;;;;;;;;;;;;;;;10.98;100.00;102172.34;5072630;28;20035;-78
2022/03/16 10:48:16;;;;;;;;;;;;;;;11.30;100.00;102171.47;5089440;28;19927;-77
2022/03/16 10:50:42;;;;;;;;;;;;;;;11.04;100.00;102168.31;5074188;28;19920;-77
2022/03/16 10:53:16;;;;;;;;;;;;;;;11.21;100.00;102166.59;5092455;28;20328;-78
2022/03/16 10:55:42;;;;;;;;;;;;;;;11.22;100.00;102162.25;5075066;28;19963;-80
2022/03/16 10:58:10;;;;;;;;;;;;;;;11.32;100.00;102168.06;5080331;28;20341;-77
2022/03/16 11:00:39;;;;;;;;;;;;;;;11.36;100.00;102155.06;5074139;28;19994;-78
2022/03/16 11:03:09;;;;;;;;;;;;;;;11.27;100.00;102159.03;5072992;28;20083;-80
2022/03/16 11:05:36;;;;;;;;;;;;;;;11.12;100.00;102145.94;5053970;28;20332;-80
2022/03/16 11:08:07;;;;;;;;;;;;;;;11.11;100.00;102153.75;5055411;28;19927;-79
2022/03/16 11:10:33;;;;;;;;;;;;;;;11.08;100.00;102157.13;5069069;28;20125;-79
2022/03/16 11:15:43;;;;;;;;;;;;;;;11.39;100.00;102152.59;5075887;28;19974;-79
2022/03/16 11:18:08;;;;;;;;;;;;;;;11.60;100.00;102164.28;5075434;28;19916;-79
2022/03/16 11:20:34;;;;;;;;;;;;;;;11.94;100.00;102166.06;5058149;28;19956;-81
2022/03/16 11:26:00;;;;;;;;;;;;;;;11.95;100.00;102159.97;5089694;28;19927;-79
2022/03/16 11:28:47;;;;;;;;;;;;;;;11.99;100.00;102161.97;5058612;28;19920;-79
2022/03/16 11:31:13;;;;;;;;;;;;;;;11.98;100.00;102159.25;5072213;28;19927;-76
2022/03/16 11:33:49;;;;;;;;;;;;;;;11.97;100.00;102166.22;5047366;28;19971;-75
2022/03/16 11:36:40;;;;;;;;;;;;;;;12.03;100.00;102170.94;5054902;28;19920;-78
2022/03/16 11:39:26;;;;;;;;;;;;;;;12.08;100.00;102166.78;5088400;28;19952;-80
2022/03/16 11:41:55;;;;;;;;;;;;;;;12.22;100.00;102170.13;5056629;28;19920;-79
2022/03/16 11:44:26;;;;;;;;;;;;;;;12.28;100.00;102162.50;5087541;28;20003;-77
2022/03/16 11:46:52;;;;;;;;;;;;;;;12.42;100.00;102160.56;5092454;28;19920;-80
2022/03/16 11:49:47;;;;;;;;;;;;;;;12.57;100.00;102158.66;5071148;28;19920;-78
2022/03/16 11:52:12;;;;;;;;;;;;;;;12.57;100.00;102158.66;5025948;28;20295;-76
2022/03/16 11:54:42;;;;;;;;;;;;;;;12.76;100.00;102151.63;5070982;28;19920;-74
2022/03/16 11:57:07;;;;;;;;;;;;;;;12.54;100.00;102147.06;5058181;28;19917;-74
2022/03/16 11:59:33;;;;;;;;;;;;;;;12.42;100.00;102157.91;5053530;28;19920;-77
2022/03/16 12:02:10;;;;;;;;;;;;;;;12.40;100.00;102154.28;5053731;28;19922;-74
2022/03/16 12:04:38;;;;;;;;;;;;;;;12.40;100.00;102162.22;5053438;28;19921;-78
2022/03/16 12:07:12;;;;;;;;;;;;;;;12.52;100.00;102165.47;5055215;28;19936;-78
2022/03/16 12:09:56;;;;;;;;;;;;;;;12.46;100.00;102165.16;5062446;28;19923;-78
2022/03/16 12:15:22;;;;;;;;;;;;;;;12.41;100.00;102157.84;5071841;28;19927;-78
2022/03/16 12:17:56;;;;;;;;;;;;;;;12.51;100.00;102155.72;5086239;28;19923;-79
2022/03/16 12:20:21;;;;;;;;;;;;;;;12.51;100.00;102157.47;5074300;28;19935;-79
2022/03/16 12:22:48;;;;;;;;;;;;;;;12.45;100.00;102154.53;5072573;28;19917;-79
2022/03/16 12:25:26;;;;;;;;;;;;;;;12.45;100.00;102149.25;5095923;28;20418;-78
2022/03/16 12:30:43;;;;;;;;;;;;;;;12.73;100.00;102136.50;5095196;28;19938;-79
2022/03/16 12:33:37;;;;;;;;;;;;;;;12.55;100.00;102128.63;5077609;28;19915;-78
2022/03/16 12:36:03;;;;;;;;;;;;;;;12.42;100.00;102128.84;5060141;28;19913;-78
2022/03/16 12:38:32;;;;;;;;;;;;;;;12.53;100.00;102130.28;5072601;28;19946;-78
2022/03/16 12:43:42;;;;;;;;;;;;;;;12.71;100.00;102124.97;5074639;28;20447;-78
2022/03/16 12:46:26;;;;;;;;;;;;;;;12.80;100.00;102113.00;5057628;28;19955;-78
2022/03/16 12:48:56;;;;;;;;;;;;;;;12.54;100.00;102107.41;5060651;28;19951;-78
2022/03/16 12:51:34;;;;;;;;;;;;;;;12.68;100.00;102106.31;5057057;28;20012;-79
2022/03/16 12:54:01;;;;;;;;;;;;;;;12.81;100.00;102107.81;5037110;28;20012;-78
2022/03/16 12:56:26;;;;;;;;;;;;;;;12.62;100.00;102099.84;5051138;28;19959;-78
2022/03/16 12:59:12;;;;;;;;;;;;;;;12.55;100.00;102091.63;5040489;28;20506;-79
2022/03/16 13:01:37;;;;;;;;;;;;;;;12.57;100.00;102081.16;5057387;28;20011;-76
2022/03/16 13:04:04;;;;;;;;;;;;;;;12.66;100.00;102081.56;5056620;28;19948;-76